sensor_id;sensor_type;location;lat;lon;timestamp;P1;durP1;ratioP1;P2;durP2;ratioP2
73315;SDS011;61545;53.726;-0.444;2022-07-12T00:01:39;5.1;;;1.8;;
73315;SDS011;61545;53.726;-0.444;2022-07-12T00:06:40;5.1;;;1.9;;
73315;SDS011;61545;53.726;-0.444;2022-07-12T00:11:39;5.1;;;1.9;;
73315;SDS011;61545;53.726;-0.444;2022-07-12T00:16:39;3.8;;;1.4;;
73315;SDS011;61545;53.726;-0.444;2022-07-12T00:21:41;3.4;;;1.6;;
73315;SDS011;61545;53.726;-0.444;2022-07-12T00:26:39;5.3;;;1.7;;
73315;SDS011;61545;53.726;-0.444;2022-07-12T00:31:39;5.7;;;1.9;;
73315;SDS011;61545;53.726;-0.444;2022-07-12T00:36:39;3.8;;;1.8;;
73315;SDS011;61545;53.726;-0.444;2022-07-12T00:41:39;3.8;;;1.8;;
73315;SDS011;61545;53.726;-0.444;2022-07-12T00:46:39;5.0;;;1.9;;
73315;SDS011;61545;53.726;-0.444;2022-07-12T00:51:39;6.4;;;1.8;;
73315;SDS011;61545;53.726;-0.444;2022-07-12T00:56:39;4.4;;;1.8;;
73315;SDS011;61545;53.726;-0.444;2022-07-12T01:01:41;5.1;;;1.8;;
73315;SDS011;61545;53.726;-0.444;2022-07-12T01:06:39;5.1;;;1.8;;
73315;SDS011;61545;53.726;-0.444;2022-07-12T01:11:39;4.5;;;1.8;;
73315;SDS011;61545;53.726;-0.444;2022-07-12T01:16:39;4.0;;;2;;
73315;SDS011;61545;53.726;-0.444;2022-07-12T01:21:39;4.3;;;1.7;;
73315;SDS011;61545;53.726;-0.444;2022-07-12T01:26:39;4.7;;;2.1;;
73315;SDS011;61545;53.726;-0.444;2022-07-12T01:31:39;4.5;;;2.1;;
73315;SDS011;61545;53.726;-0.444;2022-07-12T01:36:39;4.5;;;2.1;;
73315;SDS011;61545;53.726;-0.444;2022-07-12T01:41:39;3.3;;;1.9;;
73315;SDS011;61545;53.726;-0.444;2022-07-12T01:46:39;6.5;;;2.2;;
73315;SDS011;61545;53.726;-0.444;2022-07-12T01:51:39;5.5;;;2.1;;
73315;SDS011;61545;53.726;-0.444;2022-07-12T01:56:39;6.4;;;2.3;;
73315;SDS011;61545;53.726;-0.444;2022-07-12T02:01:39;6.8;;;2.3;;
73315;SDS011;61545;53.726;-0.444;2022-07-12T02:06:39;6.8;;;2.3;;
73315;SDS011;61545;53.726;-0.444;2022-07-12T02:11:39;4.8;;;2.1;;
73315;SDS011;61545;53.726;-0.444;2022-07-12T02:16:39;5.6;;;2.4;;
73315;SDS011;61545;53.726;-0.444;2022-07-12T02:21:39;4.5;;;2.2;;
73315;SDS011;61545;53.726;-0.444;2022-07-12T02:26:39;4.3;;;2.1;;
73315;SDS011;61545;53.726;-0.444;2022-07-12T02:31:39;5.9;;;2;;
73315;SDS011;61545;53.726;-0.444;2022-07-12T02:36:39;5.9;;;2;;
73315;SDS011;61545;53.726;-0.444;2022-07-12T02:41:39;4.0;;;1.9;;
73315;SDS011;61545;53.726;-0.444;2022-07-12T02:46:39;2.9;;;1.8;;
73315;SDS011;61545;53.726;-0.444;2022-07-12T02:51:39;6.7;;;2.6;;
73315;SDS011;61545;53.726;-0.444;2022-07-12T02:56:39;8.4;;;2.3;;
73315;SDS011;61545;53.726;-0.444;2022-07-12T03:01:39;10.5;;;3.4;;
73315;SDS011;61545;53.726;-0.444;2022-07-12T03:06:39;10.5;;;3.4;;
73315;SDS011;61545;53.726;-0.444;2022-07-12T03:11:39;5.5;;;2.5;;
73315;SDS011;61545;53.726;-0.444;2022-07-12T03:16:39;4.7;;;2.5;;
73315;SDS011;61545;53.726;-0.444;2022-07-12T03:21:39;10.0;;;2.5;;
73315;SDS011;61545;53.726;-0.444;2022-07-12T03:26:39;8.0;;;3.5;;
73315;SDS011;61545;53.726;-0.444;2022-07-12T03:31:39;9.6;;;4.5;;
73315;SDS011;61545;53.726;-0.444;2022-07-12T03:36:39;9.6;;;4.5;;
73315;SDS011;61545;53.726;-0.444;2022-07-12T03:41:39;13.5;;;4.5;;
73315;SDS011;61545;53.726;-0.444;2022-07-12T03:46:39;7.6;;;3.4;;
73315;SDS011;61545;53.726;-0.444;2022-07-12T03:51:39;9.9;;;3.7;;
73315;SDS011;61545;53.726;-0.444;2022-07-12T03:56:39;8.4;;;3.5;;
73315;SDS011;61545;53.726;-0.444;2022-07-12T04:01:39;12.4;;;3.2;;
73315;SDS011;61545;53.726;-0.444;2022-07-12T04:06:39;12.4;;;3.2;;
73315;SDS011;61545;53.726;-0.444;2022-07-12T04:11:39;9.7;;;3.2;;
73315;SDS011;61545;53.726;-0.444;2022-07-12T04:16:39;7.2;;;2.9;;
73315;SDS011;61545;53.726;-0.444;2022-07-12T04:21:39;7.2;;;2.9;;
73315;SDS011;61545;53.726;-0.444;2022-07-12T04:26:39;5.9;;;2.4;;
73315;SDS011;61545;53.726;-0.444;2022-07-12T04:31:39;6.6;;;3;;
73315;SDS011;61545;53.726;-0.444;2022-07-12T04:36:39;6.6;;;3;;
73315;SDS011;61545;53.726;-0.444;2022-07-12T04:41:39;6.3;;;2.7;;
73315;SDS011;61545;53.726;-0.444;2022-07-12T04:46:39;6.1;;;2.9;;
73315;SDS011;61545;53.726;-0.444;2022-07-12T04:51:39;5.4;;;2.5;;
73315;SDS011;61545;53.726;-0.444;2022-07-12T04:56:39;9.3;;;2.7;;
73315;SDS011;61545;53.726;-0.444;2022-07-12T05:01:39;10.6;;;2.4;;
73315;SDS011;61545;53.726;-0.444;2022-07-12T05:06:39;10.6;;;2.4;;
73315;SDS011;61545;53.726;-0.444;2022-07-12T05:11:39;6.3;;;2.5;;
73315;SDS011;61545;53.726;-0.444;2022-07-12T05:16:39;4.3;;;2.2;;
73315;SDS011;61545;53.726;-0.444;2022-07-12T05:21:39;6.2;;;2;;
73315;SDS011;61545;53.726;-0.444;2022-07-12T05:26:39;10.3;;;3.8;;
73315;SDS011;61545;53.726;-0.444;2022-07-12T05:31:39;12.7;;;4.5;;
73315;SDS011;61545;53.726;-0.444;2022-07-12T05:36:39;12.7;;;4.5;;
73315;SDS011;61545;53.726;-0.444;2022-07-12T05:41:39;11.7;;;3.6;;
73315;SDS011;61545;53.726;-0.444;2022-07-12T05:46:39;10.1;;;3.1;;
73315;SDS011;61545;53.726;-0.444;2022-07-12T05:51:39;13.5;;;3.7;;
73315;SDS011;61545;53.726;-0.444;2022-07-12T05:56:39;6.2;;;3.2;;
73315;SDS011;61545;53.726;-0.444;2022-07-12T06:01:39;7.6;;;3.1;;
73315;SDS011;61545;53.726;-0.444;2022-07-12T06:06:39;7.6;;;3.1;;
73315;SDS011;61545;53.726;-0.444;2022-07-12T06:11:39;9.5;;;3.6;;
73315;SDS011;61545;53.726;-0.444;2022-07-12T06:16:39;9.0;;;3.1;;
73315;SDS011;61545;53.726;-0.444;2022-07-12T06:21:39;9.0;;;3.1;;
73315;SDS011;61545;53.726;-0.444;2022-07-12T06:26:39;7.3;;;3.3;;
73315;SDS011;61545;53.726;-0.444;2022-07-12T06:31:39;8.8;;;3.2;;
73315;SDS011;61545;53.726;-0.444;2022-07-12T06:36:39;8.8;;;3.2;;
73315;SDS011;61545;53.726;-0.444;2022-07-12T06:41:39;8.0;;;3.4;;
73315;SDS011;61545;53.726;-0.444;2022-07-12T06:46:39;8.9;;;3.5;;
73315;SDS011;61545;53.726;-0.444;2022-07-12T06:51:39;9.2;;;2.9;;
73315;SDS011;61545;53.726;-0.444;2022-07-12T06:56:39;15.2;;;2.7;;
73315;SDS011;61545;53.726;-0.444;2022-07-12T07:01:39;8.1;;;2.5;;
73315;SDS011;61545;53.726;-0.444;2022-07-12T07:06:39;8.1;;;2.5;;
73315;SDS011;61545;53.726;-0.444;2022-07-12T07:11:39;9.5;;;2.5;;
73315;SDS011;61545;53.726;-0.444;2022-07-12T07:16:39;14.0;;;2.7;;
73315;SDS011;61545;53.726;-0.444;2022-07-12T07:21:39;8.8;;;2.7;;
73315;SDS011;61545;53.726;-0.444;2022-07-12T07:26:39;3.7;;;1.5;;
73315;SDS011;61545;53.726;-0.444;2022-07-12T07:31:39;6.4;;;1.3;;
73315;SDS011;61545;53.726;-0.444;2022-07-12T07:36:39;6.4;;;1.3;;
73315;SDS011;61545;53.726;-0.444;2022-07-12T07:41:39;4.2;;;1.6;;
73315;SDS011;61545;53.726;-0.444;2022-07-12T07:46:39;4.0;;;1.5;;
73315;SDS011;61545;53.726;-0.444;2022-07-12T07:51:39;3.6;;;1.5;;
73315;SDS011;61545;53.726;-0.444;2022-07-12T07:56:39;3.9;;;1.3;;
73315;SDS011;61545;53.726;-0.444;2022-07-12T08:01:39;3.4;;;1.4;;
73315;SDS011;61545;53.726;-0.444;2022-07-12T08:06:39;3.4;;;1.4;;
73315;SDS011;61545;53.726;-0.444;2022-07-12T08:11:39;2.6;;;1.3;;
73315;SDS011;61545;53.726;-0.444;2022-07-12T08:16:39;7.2;;;1.5;;
73315;SDS011;61545;53.726;-0.444;2022-07-12T08:21:39;3.4;;;1.3;;
73315;SDS011;61545;53.726;-0.444;2022-07-12T08:26:39;3.8;;;1.3;;
73315;SDS011;61545;53.726;-0.444;2022-07-12T08:31:39;4.9;;;1.5;;
73315;SDS011;61545;53.726;-0.444;2022-07-12T08:36:39;4.9;;;1.5;;
73315;SDS011;61545;53.726;-0.444;2022-07-12T08:41:39;3.0;;;1.3;;
73315;SDS011;61545;53.726;-0.444;2022-07-12T08:46:39;3.4;;;1.2;;
73315;SDS011;61545;53.726;-0.444;2022-07-12T08:51:39;5.1;;;1.5;;
73315;SDS011;61545;53.726;-0.444;2022-07-12T08:56:40;2.7;;;1.1;;
73315;SDS011;61545;53.726;-0.444;2022-07-12T09:01:41;3.0;;;1.2;;
73315;SDS011;61545;53.726;-0.444;2022-07-12T09:06:39;3.0;;;1.2;;
73315;SDS011;61545;53.726;-0.444;2022-07-12T09:11:39;5.3;;;1.4;;
73315;SDS011;61545;53.726;-0.444;2022-07-12T09:16:39;6.2;;;1.6;;
73315;SDS011;61545;53.726;-0.444;2022-07-12T09:21:46;8.7;;;1.5;;
73315;SDS011;61545;53.726;-0.444;2022-07-12T09:26:39;12.5;;;1.4;;
73315;SDS011;61545;53.726;-0.444;2022-07-12T09:31:40;3.2;;;1.3;;
73315;SDS011;61545;53.726;-0.444;2022-07-12T09:36:39;3.2;;;1.3;;
73315;SDS011;61545;53.726;-0.444;2022-07-12T09:41:39;8.7;;;1.2;;
73315;SDS011;61545;53.726;-0.444;2022-07-12T09:46:39;9.3;;;1.4;;
73315;SDS011;61545;53.726;-0.444;2022-07-12T09:51:39;5.1;;;1.5;;
73315;SDS011;61545;53.726;-0.444;2022-07-12T09:56:39;8.9;;;1.5;;
73315;SDS011;61545;53.726;-0.444;2022-07-12T10:01:39;7.4;;;1.5;;
73315;SDS011;61545;53.726;-0.444;2022-07-12T10:06:39;7.4;;;1.5;;
73315;SDS011;61545;53.726;-0.444;2022-07-12T10:11:39;5.4;;;1.3;;
73315;SDS011;61545;53.726;-0.444;2022-07-12T10:16:41;6.9;;;1.3;;
73315;SDS011;61545;53.726;-0.444;2022-07-12T10:21:39;4.4;;;1.4;;
73315;SDS011;61545;53.726;-0.444;2022-07-12T10:26:39;3.9;;;1.2;;
73315;SDS011;61545;53.726;-0.444;2022-07-12T10:31:39;5.2;;;1.2;;
73315;SDS011;61545;53.726;-0.444;2022-07-12T10:37:11;5.2;;;1.2;;
73315;SDS011;61545;53.726;-0.444;2022-07-12T10:41:39;5.5;;;1.3;;
73315;SDS011;61545;53.726;-0.444;2022-07-12T10:46:56;3.9;;;1;;
73315;SDS011;61545;53.726;-0.444;2022-07-12T10:51:39;5.7;;;1.4;;
73315;SDS011;61545;53.726;-0.444;2022-07-12T10:56:55;1.8;;;1;;
73315;SDS011;61545;53.726;-0.444;2022-07-12T11:01:39;4.1;;;1.1;;
73315;SDS011;61545;53.726;-0.444;2022-07-12T11:06:40;4.1;;;1.1;;
73315;SDS011;61545;53.726;-0.444;2022-07-12T11:11:41;3.3;;;1.1;;
73315;SDS011;61545;53.726;-0.444;2022-07-12T11:16:43;4.1;;;1.1;;
73315;SDS011;61545;53.726;-0.444;2022-07-12T11:21:42;4.4;;;1.4;;
73315;SDS011;61545;53.726;-0.444;2022-07-12T11:26:39;4.3;;;1.3;;
73315;SDS011;61545;53.726;-0.444;2022-07-12T11:31:39;3.7;;;1.1;;
73315;SDS011;61545;53.726;-0.444;2022-07-12T11:36:39;3.7;;;1.1;;
73315;SDS011;61545;53.726;-0.444;2022-07-12T11:41:39;7.5;;;1.3;;
73315;SDS011;61545;53.726;-0.444;2022-07-12T11:46:39;6.8;;;1.4;;
73315;SDS011;61545;53.726;-0.444;2022-07-12T11:51:39;2.8;;;1.1;;
73315;SDS011;61545;53.726;-0.444;2022-07-12T11:56:39;3.1;;;1.1;;
73315;SDS011;61545;53.726;-0.444;2022-07-12T12:01:39;5.2;;;1.3;;
73315;SDS011;61545;53.726;-0.444;2022-07-12T12:06:39;5.2;;;1.3;;
73315;SDS011;61545;53.726;-0.444;2022-07-12T12:11:39;5.4;;;1.3;;
73315;SDS011;61545;53.726;-0.444;2022-07-12T12:16:39;4.7;;;1.1;;
73315;SDS011;61545;53.726;-0.444;2022-07-12T12:21:39;3.4;;;1.2;;
73315;SDS011;61545;53.726;-0.444;2022-07-12T12:26:39;4.3;;;1.2;;
73315;SDS011;61545;53.726;-0.444;2022-07-12T12:31:39;1.7;;;1;;
73315;SDS011;61545;53.726;-0.444;2022-07-12T12:36:39;1.7;;;1;;
73315;SDS011;61545;53.726;-0.444;2022-07-12T12:41:40;5.4;;;1.1;;
73315;SDS011;61545;53.726;-0.444;2022-07-12T12:46:43;2.8;;;0.6;;
73315;SDS011;61545;53.726;-0.444;2022-07-12T12:51:56;3.3;;;1.1;;
73315;SDS011;61545;53.726;-0.444;2022-07-12T12:56:40;3.6;;;1;;
73315;SDS011;61545;53.726;-0.444;2022-07-12T13:01:39;4.8;;;1.3;;
73315;SDS011;61545;53.726;-0.444;2022-07-12T13:06:39;4.8;;;1.3;;
73315;SDS011;61545;53.726;-0.444;2022-07-12T13:11:39;4.2;;;1.2;;
73315;SDS011;61545;53.726;-0.444;2022-07-12T13:16:39;1.7;;;1;;
73315;SDS011;61545;53.726;-0.444;2022-07-12T13:21:39;2.5;;;1;;
73315;SDS011;61545;53.726;-0.444;2022-07-12T13:26:39;4.1;;;1;;
73315;SDS011;61545;53.726;-0.444;2022-07-12T13:31:39;2.0;;;0.9;;
73315;SDS011;61545;53.726;-0.444;2022-07-12T13:36:39;2.0;;;0.9;;
73315;SDS011;61545;53.726;-0.444;2022-07-12T13:41:39;3.1;;;0.9;;
73315;SDS011;61545;53.726;-0.444;2022-07-12T13:46:39;2.3;;;0.9;;
73315;SDS011;61545;53.726;-0.444;2022-07-12T13:51:39;1.8;;;1;;
73315;SDS011;61545;53.726;-0.444;2022-07-12T13:56:39;3.3;;;0.9;;
73315;SDS011;61545;53.726;-0.444;2022-07-12T14:01:39;3.4;;;1;;
73315;SDS011;61545;53.726;-0.444;2022-07-12T14:06:39;3.4;;;1;;
73315;SDS011;61545;53.726;-0.444;2022-07-12T14:11:39;2.5;;;0.8;;
73315;SDS011;61545;53.726;-0.444;2022-07-12T14:16:39;6.1;;;1;;
73315;SDS011;61545;53.726;-0.444;2022-07-12T14:21:39;1.6;;;0.9;;
73315;SDS011;61545;53.726;-0.444;2022-07-12T14:26:39;3.2;;;1;;
73315;SDS011;61545;53.726;-0.444;2022-07-12T14:31:39;3.3;;;1.1;;
73315;SDS011;61545;53.726;-0.444;2022-07-12T14:36:39;3.3;;;1.1;;
73315;SDS011;61545;53.726;-0.444;2022-07-12T14:41:39;4.0;;;1.1;;
73315;SDS011;61545;53.726;-0.444;2022-07-12T14:46:39;5.4;;;1.2;;
73315;SDS011;61545;53.726;-0.444;2022-07-12T14:51:39;5.2;;;1.2;;
73315;SDS011;61545;53.726;-0.444;2022-07-12T14:56:39;3.0;;;1;;
73315;SDS011;61545;53.726;-0.444;2022-07-12T15:01:39;3.0;;;1;;
73315;SDS011;61545;53.726;-0.444;2022-07-12T15:06:39;3.5;;;1.3;;
73315;SDS011;61545;53.726;-0.444;2022-07-12T15:11:39;6.3;;;1.3;;
73315;SDS011;61545;53.726;-0.444;2022-07-12T15:16:39;3.9;;;1.1;;
73315;SDS011;61545;53.726;-0.444;2022-07-12T15:21:39;4.1;;;1.1;;
73315;SDS011;61545;53.726;-0.444;2022-07-12T15:26:39;3.8;;;1.3;;
73315;SDS011;61545;53.726;-0.444;2022-07-12T15:31:39;3.8;;;1.3;;
73315;SDS011;61545;53.726;-0.444;2022-07-12T15:36:39;3.1;;;0.9;;
73315;SDS011;61545;53.726;-0.444;2022-07-12T15:41:39;1.8;;;0.9;;
73315;SDS011;61545;53.726;-0.444;2022-07-12T15:46:39;2.3;;;0.8;;
73315;SDS011;61545;53.726;-0.444;2022-07-12T15:51:39;2.5;;;0.9;;
73315;SDS011;61545;53.726;-0.444;2022-07-12T15:56:39;1.9;;;0.8;;
73315;SDS011;61545;53.726;-0.444;2022-07-12T16:01:39;1.9;;;0.8;;
73315;SDS011;61545;53.726;-0.444;2022-07-12T16:06:39;3.1;;;0.9;;
73315;SDS011;61545;53.726;-0.444;2022-07-12T16:11:39;1.1;;;0.8;;
73315;SDS011;61545;53.726;-0.444;2022-07-12T16:16:39;1.0;;;0.8;;
73315;SDS011;61545;53.726;-0.444;2022-07-12T16:21:39;3.6;;;0.9;;
73315;SDS011;61545;53.726;-0.444;2022-07-12T16:26:39;3.0;;;0.9;;
73315;SDS011;61545;53.726;-0.444;2022-07-12T16:31:39;3.0;;;0.9;;
73315;SDS011;61545;53.726;-0.444;2022-07-12T16:36:39;2.6;;;1.1;;
73315;SDS011;61545;53.726;-0.444;2022-07-12T16:41:39;2.3;;;0.9;;
73315;SDS011;61545;53.726;-0.444;2022-07-12T16:46:39;2.7;;;0.9;;
73315;SDS011;61545;53.726;-0.444;2022-07-12T16:51:39;2.2;;;0.9;;
73315;SDS011;61545;53.726;-0.444;2022-07-12T16:56:39;1.5;;;0.9;;
73315;SDS011;61545;53.726;-0.444;2022-07-12T17:01:39;1.5;;;0.9;;
73315;SDS011;61545;53.726;-0.444;2022-07-12T17:06:39;2.2;;;0.8;;
73315;SDS011;61545;53.726;-0.444;2022-07-12T17:11:39;33.7;;;1.9;;
73315;SDS011;61545;53.726;-0.444;2022-07-12T17:16:39;1.8;;;0.8;;
73315;SDS011;61545;53.726;-0.444;2022-07-12T17:21:39;2.2;;;0.9;;
73315;SDS011;61545;53.726;-0.444;2022-07-12T17:26:39;1.5;;;0.9;;
73315;SDS011;61545;53.726;-0.444;2022-07-12T17:31:39;1.5;;;0.9;;
73315;SDS011;61545;53.726;-0.444;2022-07-12T17:36:39;2.8;;;1.1;;
73315;SDS011;61545;53.726;-0.444;2022-07-12T17:41:39;2.2;;;0.8;;
73315;SDS011;61545;53.726;-0.444;2022-07-12T17:46:39;1.6;;;0.7;;
73315;SDS011;61545;53.726;-0.444;2022-07-12T17:51:39;2.1;;;1;;
73315;SDS011;61545;53.726;-0.444;2022-07-12T17:56:39;2.0;;;0.8;;
73315;SDS011;61545;53.726;-0.444;2022-07-12T18:01:39;2.0;;;0.8;;
73315;SDS011;61545;53.726;-0.444;2022-07-12T18:06:39;3.2;;;0.9;;
73315;SDS011;61545;53.726;-0.444;2022-07-12T18:11:39;3.3;;;0.9;;
73315;SDS011;61545;53.726;-0.444;2022-07-12T18:16:40;1.3;;;0.9;;
73315;SDS011;61545;53.726;-0.444;2022-07-12T18:21:39;5.2;;;0.8;;
73315;SDS011;61545;53.726;-0.444;2022-07-12T18:26:39;3.7;;;1.2;;
73315;SDS011;61545;53.726;-0.444;2022-07-12T18:31:39;3.7;;;1.2;;
73315;SDS011;61545;53.726;-0.444;2022-07-12T18:36:39;3.4;;;1.5;;
73315;SDS011;61545;53.726;-0.444;2022-07-12T18:41:39;10.3;;;1.5;;
73315;SDS011;61545;53.726;-0.444;2022-07-12T18:46:39;4.1;;;0.9;;
73315;SDS011;61545;53.726;-0.444;2022-07-12T18:51:40;3.4;;;0.9;;
73315;SDS011;61545;53.726;-0.444;2022-07-12T18:56:39;3.2;;;0.9;;
73315;SDS011;61545;53.726;-0.444;2022-07-12T19:01:39;3.2;;;0.9;;
73315;SDS011;61545;53.726;-0.444;2022-07-12T19:06:39;3.2;;;0.9;;
73315;SDS011;61545;53.726;-0.444;2022-07-12T19:11:39;3.0;;;0.8;;
73315;SDS011;61545;53.726;-0.444;2022-07-12T19:16:39;1.0;;;0.8;;
73315;SDS011;61545;53.726;-0.444;2022-07-12T19:21:39;4.4;;;0.9;;
73315;SDS011;61545;53.726;-0.444;2022-07-12T19:26:39;1.5;;;0.9;;
73315;SDS011;61545;53.726;-0.444;2022-07-12T19:31:39;1.5;;;0.9;;
73315;SDS011;61545;53.726;-0.444;2022-07-12T19:36:39;2.9;;;0.9;;
73315;SDS011;61545;53.726;-0.444;2022-07-12T19:41:39;2.2;;;1;;
73315;SDS011;61545;53.726;-0.444;2022-07-12T19:46:39;2.8;;;1.2;;
73315;SDS011;61545;53.726;-0.444;2022-07-12T19:51:39;3.1;;;1;;
73315;SDS011;61545;53.726;-0.444;2022-07-12T19:56:39;3.6;;;0.8;;
73315;SDS011;61545;53.726;-0.444;2022-07-12T20:01:39;3.6;;;0.8;;
73315;SDS011;61545;53.726;-0.444;2022-07-12T20:06:39;6.6;;;1;;
73315;SDS011;61545;53.726;-0.444;2022-07-12T20:11:39;1.5;;;0.9;;
73315;SDS011;61545;53.726;-0.444;2022-07-12T20:16:39;1.5;;;1;;
73315;SDS011;61545;53.726;-0.444;2022-07-12T20:21:39;2.7;;;1.1;;
73315;SDS011;61545;53.726;-0.444;2022-07-12T20:26:39;3.7;;;1.4;;
73315;SDS011;61545;53.726;-0.444;2022-07-12T20:31:39;3.7;;;1.4;;
73315;SDS011;61545;53.726;-0.444;2022-07-12T20:36:39;2.6;;;1.3;;
73315;SDS011;61545;53.726;-0.444;2022-07-12T20:41:39;4.3;;;1.4;;
73315;SDS011;61545;53.726;-0.444;2022-07-12T20:46:39;2.1;;;1.1;;
73315;SDS011;61545;53.726;-0.444;2022-07-12T20:51:39;4.3;;;1.3;;
73315;SDS011;61545;53.726;-0.444;2022-07-12T20:56:39;4.4;;;1.2;;
73315;SDS011;61545;53.726;-0.444;2022-07-12T21:01:39;4.4;;;1.2;;
73315;SDS011;61545;53.726;-0.444;2022-07-12T21:06:40;2.1;;;1.1;;
73315;SDS011;61545;53.726;-0.444;2022-07-12T21:11:39;4.0;;;1.1;;
73315;SDS011;61545;53.726;-0.444;2022-07-12T21:16:39;3.8;;;1;;
73315;SDS011;61545;53.726;-0.444;2022-07-12T21:21:39;2.1;;;1.2;;
73315;SDS011;61545;53.726;-0.444;2022-07-12T21:26:39;1.7;;;1.1;;
73315;SDS011;61545;53.726;-0.444;2022-07-12T21:31:39;1.7;;;1.1;;
73315;SDS011;61545;53.726;-0.444;2022-07-12T21:36:39;3.4;;;1.3;;
73315;SDS011;61545;53.726;-0.444;2022-07-12T21:41:39;3.2;;;1.3;;
73315;SDS011;61545;53.726;-0.444;2022-07-12T21:46:39;2.6;;;1.2;;
73315;SDS011;61545;53.726;-0.444;2022-07-12T21:51:39;1.5;;;1;;
73315;SDS011;61545;53.726;-0.444;2022-07-12T21:56:39;3.4;;;1.2;;
73315;SDS011;61545;53.726;-0.444;2022-07-12T22:01:39;3.4;;;1.2;;
73315;SDS011;61545;53.726;-0.444;2022-07-12T22:06:39;1.8;;;1.2;;
73315;SDS011;61545;53.726;-0.444;2022-07-12T22:11:39;2.7;;;1.3;;
73315;SDS011;61545;53.726;-0.444;2022-07-12T22:16:39;4.4;;;1.6;;
73315;SDS011;61545;53.726;-0.444;2022-07-12T22:21:39;2.3;;;1.4;;
73315;SDS011;61545;53.726;-0.444;2022-07-12T22:26:39;4.4;;;1.3;;
73315;SDS011;61545;53.726;-0.444;2022-07-12T22:31:39;4.4;;;1.3;;
73315;SDS011;61545;53.726;-0.444;2022-07-12T22:36:39;3.3;;;1.4;;
73315;SDS011;61545;53.726;-0.444;2022-07-12T22:41:39;3.2;;;1.4;;
73315;SDS011;61545;53.726;-0.444;2022-07-12T22:46:39;4.2;;;1.2;;
73315;SDS011;61545;53.726;-0.444;2022-07-12T22:51:39;4.4;;;2;;
73315;SDS011;61545;53.726;-0.444;2022-07-12T22:56:39;4.0;;;1.4;;
73315;SDS011;61545;53.726;-0.444;2022-07-12T23:01:39;4.0;;;1.4;;
73315;SDS011;61545;53.726;-0.444;2022-07-12T23:06:39;2.5;;;1.5;;
73315;SDS011;61545;53.726;-0.444;2022-07-12T23:11:39;5.3;;;2.1;;
73315;SDS011;61545;53.726;-0.444;2022-07-12T23:16:39;5.4;;;1.9;;
73315;SDS011;61545;53.726;-0.444;2022-07-12T23:21:39;6.5;;;1.6;;
73315;SDS011;61545;53.726;-0.444;2022-07-12T23:26:39;2.8;;;1.3;;
73315;SDS011;61545;53.726;-0.444;2022-07-12T23:31:39;2.8;;;1.3;;
73315;SDS011;61545;53.726;-0.444;2022-07-12T23:36:39;7.2;;;1.6;;
73315;SDS011;61545;53.726;-0.444;2022-07-12T23:41:39;5.7;;;1.9;;
73315;SDS011;61545;53.726;-0.444;2022-07-12T23:46:39;5.8;;;2;;
73315;SDS011;61545;53.726;-0.444;2022-07-12T23:51:39;7.7;;;2.1;;
73315;SDS011;61545;53.726;-0.444;2022-07-12T23:56:39;10.6;;;2.3;;
